Time;durP1;ratioP1;P1;durP2;ratioP2;P2;SDS_P1;SDS_P2;PMS_P1;PMS_P2;Temp;Humidity;BMP_temperature;BMP_pressure;BME280_temperature;BME280_humidity;BME280_pressure;Samples;Min_cycle;Max_cycle;Signal;HPM_P1;HPM_P2
2021/07/20 06:14:36;;;;;;;13.18;10.10;;;;;;;18.64;86.43;98077.73;1724151;78;20992;-79
2021/07/20 06:17:06;;;;;;;14.25;9.40;;;;;;;18.63;87.21;98082.30;1722778;83;21156;-74
2021/07/20 06:19:39;;;;;;;10.95;9.73;;;;;;;18.67;87.26;98083.69;1723643;83;20912;-73
2021/07/20 06:22:09;;;;;;;15.25;13.70;;;;;;;18.70;86.75;98083.84;1702646;83;20947;-75
2021/07/20 06:24:44;;;;;;;13.40;11.18;;;;;;;18.70;86.14;98083.36;1722625;83;21457;-79
2021/07/20 06:27:17;;;;;;;12.93;11.45;;;;;;;18.72;86.50;98083.20;1723490;83;21034;-73
2021/07/20 06:29:55;;;;;;;17.05;12.15;;;;;;;18.71;86.00;98080.96;1723421;83;21511;-72
2021/07/20 06:32:22;;;;;;;13.18;10.20;;;;;;;18.72;85.96;98089.48;1723321;83;20988;-73
2021/07/20 06:34:56;;;;;;;12.78;11.38;;;;;;;18.73;86.41;98088.47;1723443;83;20957;-73
2021/07/20 06:37:26;;;;;;;14.28;9.83;;;;;;;18.73;86.33;98084.39;1723221;83;21035;-72
2021/07/20 06:39:58;;;;;;;14.03;11.40;;;;;;;18.75;86.37;98086.42;1723307;83;20944;-74
2021/07/20 06:42:27;;;;;;;11.75;10.48;;;;;;;18.77;86.84;98087.10;1723313;83;21176;-73
2021/07/20 06:44:58;;;;;;;11.97;10.78;;;;;;;18.81;86.87;98086.77;1723247;83;20999;-75
2021/07/20 06:47:31;;;;;;;56.05;45.70;;;;;;;18.86;86.62;98090.73;1723708;83;20908;-70
2021/07/20 06:50:04;;;;;;;15.68;12.40;;;;;;;18.89;86.27;98090.92;1723484;83;20873;-72
2021/07/20 06:52:32;;;;;;;14.38;11.85;;;;;;;18.92;86.31;98087.84;1723251;83;20991;-69
2021/07/20 06:55:02;;;;;;;13.93;9.38;;;;;;;18.96;86.07;98086.50;1691672;84;21128;-70
2021/07/20 06:57:33;;;;;;;13.93;10.80;;;;;;;18.97;85.28;98089.58;1723421;83;20904;-71
2021/07/20 07:00:00;;;;;;;14.13;10.50;;;;;;;18.97;85.25;98088.22;1723479;83;20944;-69
2021/07/20 07:02:28;;;;;;;12.90;11.55;;;;;;;18.96;85.53;98078.34;1723205;83;21430;-70
2021/07/20 07:05:07;;;;;;;13.80;12.28;;;;;;;18.95;85.39;98078.86;1723437;83;20900;-71
2021/07/20 07:07:35;;;;;;;11.18;9.95;;;;;;;18.96;85.71;98082.42;1723661;83;21104;-71
2021/07/20 07:10:04;;;;;;;10.80;9.75;;;;;;;18.96;85.62;98079.70;1724073;83;20901;-71
2021/07/20 07:12:32;;;;;;;12.68;10.75;;;;;;;18.98;85.48;98081.73;1724187;83;20964;-70
2021/07/20 07:15:08;;;;;;;10.78;9.53;;;;;;;18.97;85.48;98081.41;1723459;82;21035;-70
2021/07/20 07:17:39;;;;;;;11.90;10.05;;;;;;;18.96;85.37;98085.14;1723345;83;21456;-70
2021/07/20 07:20:08;;;;;;;14.78;10.43;;;;;;;18.95;85.17;98084.78;1723409;83;21149;-70
2021/07/20 07:22:41;;;;;;;16.02;11.05;;;;;;;18.94;85.54;98084.47;1723564;83;20916;-71
2021/07/20 07:25:10;;;;;;;12.90;10.20;;;;;;;18.93;85.48;98087.67;1723151;83;21402;-69
2021/07/20 07:27:39;;;;;;;11.00;9.80;;;;;;;18.92;85.55;98081.91;1723229;83;21012;-70
2021/07/20 07:30:09;;;;;;;12.78;11.50;;;;;;;18.92;85.12;98089.20;1723229;83;20932;-70
2021/07/20 07:32:37;;;;;;;12.75;10.32;;;;;;;18.93;85.45;98089.55;1703162;83;21111;-70
2021/07/20 07:35:08;;;;;;;11.28;10.28;;;;;;;18.95;86.06;98088.87;1723450;83;21496;-70
2021/07/20 07:37:35;;;;;;;12.25;11.08;;;;;;;18.98;85.90;98089.05;1723186;83;20881;-69
2021/07/20 07:40:03;;;;;;;13.40;11.73;;;;;;;18.99;85.75;98083.45;1723460;83;20992;-69
2021/07/20 07:42:30;;;;;;;16.05;10.25;;;;;;;19.03;85.36;98082.59;1688491;84;20944;-70
2021/07/20 07:44:57;;;;;;;11.93;10.20;;;;;;;19.03;84.72;98079.38;1710688;84;21061;-70
2021/07/20 07:47:29;;;;;;;13.25;11.65;;;;;;;19.04;84.86;98079.70;1710537;84;20948;-70
2021/07/20 07:50:00;;;;;;;13.72;10.88;;;;;;;19.05;84.97;98079.21;1711282;84;20944;-69
2021/07/20 07:52:29;;;;;;;21.97;11.57;;;;;;;19.03;84.78;98079.38;1692194;84;20881;-70
2021/07/20 07:54:59;;;;;;;10.55;9.33;;;;;;;19.02;84.73;98079.03;1711027;84;21433;-70
2021/07/20 07:57:28;;;;;;;16.27;12.03;;;;;;;19.02;84.63;98080.39;1692251;84;21070;-70
2021/07/20 07:59:58;;;;;;;11.60;10.50;;;;;;;19.02;84.46;98074.95;1710655;84;20906;-71
2021/07/20 08:02:30;;;;;;;12.37;11.08;;;;;;;19.02;84.53;98077.67;1710711;83;20898;-70
2021/07/20 08:04:59;;;;;;;12.00;9.95;;;;;;;19.03;84.84;98080.73;1693137;84;20929;-70
2021/07/20 08:07:27;;;;;;;10.35;9.00;;;;;;;19.05;84.18;98086.86;1710783;84;20917;-71
2021/07/20 08:09:57;;;;;;;13.40;9.95;;;;;;;19.06;83.85;98083.13;1710698;84;21127;-71
2021/07/20 08:12:26;;;;;;;10.32;9.30;;;;;;;19.09;83.37;98082.80;1710608;84;20929;-68
2021/07/20 08:14:55;;;;;;;15.72;9.55;;;;;;;19.07;82.82;98084.81;1723307;81;20829;-69
2021/07/20 08:17:24;;;;;;;11.12;9.78;;;;;;;19.08;83.13;98091.97;1734079;82;20913;-68
2021/07/20 08:19:52;;;;;;;10.38;9.23;;;;;;;19.08;83.14;98089.24;1734199;82;20964;-71
2021/07/20 08:22:23;;;;;;;10.15;9.15;;;;;;;19.08;82.88;98091.97;1734647;82;21097;-70
2021/07/20 08:25:02;;;;;;;10.55;9.25;;;;;;;19.09;82.42;98095.53;1733804;82;21460;-71
2021/07/20 08:27:49;;;;;;;11.97;9.20;;;;;;;19.08;82.75;98097.41;1734562;82;20873;-70
2021/07/20 08:30:20;;;;;;;12.60;9.20;;;;;;;19.07;82.81;98097.05;1734121;82;21397;-68
2021/07/20 08:33:00;;;;;;;14.85;9.88;;;;;;;19.05;82.48;98095.55;1734313;82;20983;-72
2021/07/20 08:35:29;;;;;;;9.90;9.08;;;;;;;19.02;82.37;98095.36;1734293;82;21561;-71
2021/07/20 08:38:01;;;;;;;11.33;9.13;;;;;;;19.02;82.89;98104.05;1733918;82;21393;-74
2021/07/20 08:40:52;;;;;;;13.20;9.20;;;;;;;18.98;82.94;98104.86;1734107;82;20865;-73
2021/07/20 08:43:48;;;;;;;11.80;9.13;;;;;;;18.96;83.73;98104.19;1689331;82;20873;-68
2021/07/20 08:46:20;;;;;;;11.40;10.03;;;;;;;18.98;83.81;98106.74;1734250;82;20901;-72
2021/07/20 08:49:13;;;;;;;12.90;9.10;;;;;;;18.98;84.04;98107.58;1734610;82;21016;-71
2021/07/20 08:51:52;;;;;;;11.03;9.98;;;;;;;19.00;84.15;98111.02;1734246;82;20944;-71
2021/07/20 08:54:52;;;;;;;10.10;9.13;;;;;;;19.02;84.20;98108.97;1734091;82;20992;-71
2021/07/20 08:57:24;;;;;;;9.65;8.68;;;;;;;19.07;83.79;98110.67;1726037;82;21374;-70
2021/07/20 09:00:23;;;;;;;10.15;8.78;;;;;;;19.10;82.97;98108.13;1734246;82;20952;-69
2021/07/20 09:03:29;;;;;;;9.30;8.33;;;;;;;19.11;83.29;98109.84;1734115;82;21089;-73
2021/07/20 09:06:05;;;;;;;9.58;8.53;;;;;;;19.12;82.97;98117.84;1734092;82;20829;-72
2021/07/20 09:08:45;;;;;;;13.18;9.48;;;;;;;19.12;82.24;98115.12;1718728;82;20916;-73
2021/07/20 09:11:45;;;;;;;10.03;8.95;;;;;;;19.12;81.60;98111.52;1734222;82;20913;-72
2021/07/20 09:14:33;;;;;;;12.45;8.98;;;;;;;19.10;82.65;98102.17;1734092;82;20944;-73
2021/07/20 09:17:29;;;;;;;12.58;8.00;;;;;;;19.11;82.56;98098.95;1734094;82;21132;-73
2021/07/20 09:20:12;;;;;;;13.15;9.43;;;;;;;19.11;82.96;98101.68;1734051;82;20905;-71
2021/07/20 09:22:49;;;;;;;9.63;8.63;;;;;;;19.11;82.47;98095.72;1725383;81;20865;-72
2021/07/20 09:25:34;;;;;;;13.58;10.30;;;;;;;19.09;82.28;98095.53;1734224;82;20881;-72
2021/07/20 09:28:25;;;;;;;15.10;9.65;;;;;;;19.06;82.47;98096.73;1734260;82;21198;-73
2021/07/20 09:30:53;;;;;;;9.73;8.83;;;;;;;19.04;83.26;98102.00;1734625;82;21519;-74
2021/07/20 09:33:36;;;;;;;13.70;8.75;;;;;;;19.05;83.39;98095.02;1734256;82;20948;-73
2021/07/20 09:36:41;;;;;;;9.85;8.70;;;;;;;19.03;82.92;98099.80;1734278;82;21414;-73
2021/07/20 09:39:19;;;;;;;10.20;8.53;;;;;;;19.02;82.65;98098.59;1734127;82;20853;-71
2021/07/20 09:41:54;;;;;;;9.30;8.03;;;;;;;18.97;82.70;98100.45;1733227;82;20869;-70
2021/07/20 09:44:46;;;;;;;9.95;8.90;;;;;;;18.95;83.12;98097.03;1734181;82;21794;-72
2021/07/20 09:47:28;;;;;;;10.25;9.25;;;;;;;18.94;83.24;98103.52;1732544;82;20921;-72
2021/07/20 09:50:15;;;;;;;10.07;9.00;;;;;;;18.91;83.34;98098.41;1734494;82;21433;-73
2021/07/20 09:53:13;;;;;;;10.65;9.55;;;;;;;18.88;83.24;98096.02;1734465;82;20964;-73
2021/07/20 09:56:35;;;;;;;11.12;9.60;;;;;;;18.85;83.46;98093.63;1734224;82;20928;-72
2021/07/20 09:59:48;;;;;;;9.88;8.93;;;;;;;18.84;83.53;98094.60;1734127;82;21137;-73
2021/07/20 10:02:35;;;;;;;10.28;9.13;;;;;;;18.80;83.71;98093.25;1717600;82;20853;-72
2021/07/20 10:05:24;;;;;;;9.90;8.85;;;;;;;18.76;83.66;98096.30;1734180;82;20897;-73
2021/07/20 10:08:05;;;;;;;10.32;8.88;;;;;;;18.75;84.20;98093.75;1721546;82;20933;-73
2021/07/20 10:10:46;;;;;;;11.40;9.05;;;;;;;18.74;84.15;98093.39;1734323;82;20962;-71
2021/07/20 10:13:22;;;;;;;9.80;8.78;;;;;;;18.71;83.98;98090.48;1734226;82;21136;-73
2021/07/20 10:15:54;;;;;;;8.90;8.03;;;;;;;18.72;84.11;98102.23;1713545;82;21387;-72
2021/07/20 10:18:39;;;;;;;13.75;10.08;;;;;;;18.73;83.94;98097.12;1734152;82;20905;-73
2021/07/20 10:21:06;;;;;;;12.37;9.70;;;;;;;18.74;84.01;98098.83;1734293;82;20889;-71
2021/07/20 10:23:46;;;;;;;9.35;7.90;;;;;;;18.72;83.46;98093.55;1734604;82;21378;-73
2021/07/20 10:26:18;;;;;;;8.95;8.03;;;;;;;18.71;83.44;98097.28;1731009;82;21969;-72
2021/07/20 10:29:05;;;;;;;10.08;9.03;;;;;;;18.70;83.36;98096.96;1734305;82;20865;-71
2021/07/20 10:31:46;;;;;;;9.60;8.70;;;;;;;18.71;83.74;98098.64;1734230;82;20861;-71
2021/07/20 10:34:17;;;;;;;9.80;8.25;;;;;;;18.69;83.37;98092.53;1734412;82;20901;-71
2021/07/20 10:37:09;;;;;;;9.58;8.60;;;;;;;18.67;83.12;98093.21;1733831;81;20889;-70
2021/07/20 10:39:59;;;;;;;8.90;7.95;;;;;;;18.67;83.37;98093.73;1719327;82;21065;-69
2021/07/20 10:42:58;;;;;;;10.48;8.48;;;;;;;18.66;83.53;98090.66;1734168;82;20881;-69
